createdAt,value
2018-02-27T00:00:56.437Z,15.86
2018-02-27T00:01:57.018Z,15.83
2018-02-27T00:02:57.599Z,15.83
2018-02-27T00:03:58.233Z,15.80
2018-02-27T00:04:58.815Z,15.83
2018-02-27T00:05:59.397Z,15.83
2018-02-27T00:06:59.980Z,15.82
2018-02-27T00:08:00.562Z,15.82
2018-02-27T00:09:01.144Z,15.84
2018-02-27T00:10:01.777Z,15.84
2018-02-27T00:11:02.359Z,15.84
2018-02-27T00:12:02.941Z,15.84
2018-02-27T00:13:03.522Z,15.94
2018-02-27T00:14:04.255Z,15.86
2018-02-27T00:15:04.840Z,15.82
2018-02-27T00:16:05.471Z,15.86
2018-02-27T00:17:06.053Z,15.90
2018-02-27T00:18:06.636Z,15.83
2018-02-27T00:19:07.219Z,15.91
2018-02-27T00:20:07.801Z,15.84
2018-02-27T00:21:08.383Z,15.82
2018-02-27T00:22:08.965Z,15.84
2018-02-27T00:23:09.547Z,15.76
2018-02-27T00:24:10.130Z,15.83
2018-02-27T00:25:10.716Z,15.94
2018-02-27T00:26:11.343Z,15.80
2018-02-27T00:27:11.924Z,15.84
2018-02-27T00:28:12.504Z,15.79
2018-02-27T00:29:13.135Z,15.80
2018-02-27T00:30:13.765Z,15.83
2018-02-27T00:31:14.549Z,15.82
2018-02-27T00:32:15.129Z,15.83
2018-02-27T00:33:15.813Z,15.88
2018-02-27T00:34:16.392Z,15.76
2018-02-27T00:35:17.075Z,15.82
2018-02-27T00:36:17.657Z,15.80
2018-02-27T00:37:18.238Z,15.73
2018-02-27T00:38:18.821Z,15.75
2018-02-27T00:39:19.404Z,15.86
2018-02-27T00:40:19.985Z,15.83
2018-02-27T00:41:20.567Z,15.79
2018-02-27T00:42:21.150Z,15.92
2018-02-27T00:43:21.731Z,15.86
2018-02-27T00:44:22.311Z,15.84
2018-02-27T00:45:22.941Z,15.82
2018-02-27T00:46:23.524Z,15.82
2018-02-27T00:47:24.106Z,15.80
2018-02-27T00:48:24.736Z,15.83
2018-02-27T00:49:25.319Z,15.84
2018-02-27T00:50:25.951Z,15.80
2018-02-27T00:51:26.531Z,15.88
2018-02-27T00:52:27.163Z,15.84
2018-02-27T00:53:27.750Z,15.88
2018-02-27T00:54:28.330Z,15.83
2018-02-27T00:55:28.912Z,15.79
2018-02-27T00:56:29.496Z,15.80
2018-02-27T00:57:30.085Z,15.77
2018-02-27T00:58:30.708Z,15.80
2018-02-27T00:59:31.290Z,15.86
2018-02-27T01:00:31.876Z,15.82
2018-02-27T01:01:32.455Z,15.86
2018-02-27T01:02:33.036Z,15.88
2018-02-27T01:03:33.620Z,15.84
2018-02-27T01:04:34.200Z,15.80
2018-02-27T01:05:34.981Z,15.77
2018-02-27T01:06:35.614Z,15.77
2018-02-27T01:07:36.292Z,15.72
2018-02-27T01:08:36.874Z,15.83
2018-02-27T01:09:37.456Z,15.84
2018-02-27T01:10:38.038Z,15.76
2018-02-27T01:11:38.620Z,15.80
2018-02-27T01:12:39.203Z,15.79
2018-02-27T01:13:39.787Z,15.73
2018-02-27T01:14:40.419Z,15.73
2018-02-27T01:15:40.999Z,15.80
2018-02-27T01:16:41.583Z,15.80
2018-02-27T01:17:42.165Z,15.76
2018-02-27T01:18:42.747Z,15.75
2018-02-27T01:19:43.330Z,15.75
2018-02-27T01:20:43.910Z,15.73
2018-02-27T01:21:44.491Z,15.73
2018-02-27T01:22:45.125Z,15.75
2018-02-27T01:23:45.706Z,15.73
2018-02-27T01:24:46.338Z,15.77
2018-02-27T01:25:46.922Z,15.68
2018-02-27T01:26:47.503Z,15.70
2018-02-27T01:27:48.084Z,15.76
2018-02-27T01:28:48.664Z,15.73
2018-02-27T01:29:49.245Z,15.76
2018-02-27T01:30:49.827Z,15.70
2018-02-27T01:31:50.410Z,15.72
2018-02-27T01:32:51.041Z,15.72
2018-02-27T01:33:51.622Z,15.73
2018-02-27T01:34:52.253Z,15.76
2018-02-27T01:35:52.836Z,15.73
2018-02-27T01:36:53.417Z,15.76
2018-02-27T01:37:54.000Z,15.77
2018-02-27T01:38:54.582Z,15.73
2018-02-27T01:39:55.164Z,15.79
2018-02-27T01:40:55.797Z,15.79
2018-02-27T01:41:56.428Z,15.72
2018-02-27T01:42:57.010Z,15.72
2018-02-27T01:43:57.590Z,15.75
2018-02-27T01:44:58.174Z,15.64
2018-02-27T01:45:58.801Z,15.70
2018-02-27T01:47:00.238Z,15.67
2018-02-27T01:48:00.817Z,15.67
2018-02-27T01:49:01.449Z,15.65
2018-02-27T01:50:02.032Z,15.72
2018-02-27T01:51:02.613Z,15.64
2018-02-27T01:52:03.196Z,15.67
2018-02-27T01:53:03.778Z,15.64
2018-02-27T01:54:04.360Z,15.65
2018-02-27T01:55:04.941Z,15.67
2018-02-27T01:56:05.525Z,15.67
2018-02-27T01:57:06.109Z,15.68
2018-02-27T01:58:06.739Z,15.59
2018-02-27T01:59:07.321Z,15.61
2018-02-27T02:00:07.904Z,15.70
2018-02-27T02:01:08.486Z,15.67
2018-02-27T02:02:09.116Z,15.61
2018-02-27T02:03:09.699Z,15.59
2018-02-27T02:04:10.280Z,15.61
2018-02-27T02:05:10.862Z,15.62
2018-02-27T02:06:11.441Z,15.62
2018-02-27T02:07:12.061Z,15.59
2018-02-27T02:08:12.682Z,15.59
2018-02-27T02:09:13.309Z,15.55
2018-02-27T02:10:13.885Z,15.59
2018-02-27T02:11:14.464Z,15.62
2018-02-27T02:12:15.048Z,15.62
2018-02-27T02:13:15.626Z,15.59
2018-02-27T02:14:16.205Z,15.59
2018-02-27T02:15:16.782Z,15.64
2018-02-27T02:16:17.360Z,15.61
2018-02-27T02:17:18.088Z,15.59
2018-02-27T02:18:18.665Z,15.52
2018-02-27T02:19:19.244Z,15.59
2018-02-27T02:20:19.872Z,15.58
2018-02-27T02:21:20.450Z,15.61
2018-02-27T02:22:21.028Z,15.61
2018-02-27T02:23:21.604Z,15.58
2018-02-27T02:24:22.181Z,15.61
2018-02-27T02:25:22.761Z,15.58
2018-02-27T02:26:23.381Z,15.59
2018-02-27T02:27:24.109Z,15.61
2018-02-27T02:28:24.687Z,15.61
2018-02-27T02:29:25.263Z,15.58
2018-02-27T02:30:25.843Z,15.54
2018-02-27T02:31:26.422Z,15.57
2018-02-27T02:32:26.999Z,15.57
2018-02-27T02:33:27.588Z,15.55
2018-02-27T02:34:28.160Z,15.55
2018-02-27T02:35:28.739Z,15.62
2018-02-27T02:36:29.320Z,15.62
2018-02-27T02:37:30.050Z,15.59
2018-02-27T02:38:30.673Z,15.57
2018-02-27T02:39:31.261Z,15.57
2018-02-27T02:40:31.827Z,15.62
2018-02-27T02:41:32.405Z,15.55
2018-02-27T02:42:32.985Z,15.59
2018-02-27T02:43:33.562Z,15.59
2018-02-27T02:44:34.189Z,15.59
2018-02-27T02:45:34.774Z,15.57
2018-02-27T02:46:35.390Z,15.55
2018-02-27T02:47:35.968Z,15.55
2018-02-27T02:48:36.552Z,15.54
2018-02-27T02:49:37.166Z,15.55
2018-02-27T02:50:37.744Z,15.57
2018-02-27T02:51:38.322Z,15.54
2018-02-27T02:52:38.901Z,15.54
2018-02-27T02:53:39.480Z,15.54
2018-02-27T02:54:40.110Z,15.52
2018-02-27T02:55:40.738Z,15.59
2018-02-27T02:56:41.317Z,15.54
2018-02-27T02:57:41.892Z,15.43
2018-02-27T02:58:42.520Z,15.58
2018-02-27T02:59:43.097Z,15.58
2018-02-27T03:00:43.675Z,15.42
2018-02-27T03:01:44.301Z,15.43
2018-02-27T03:02:44.879Z,15.46
2018-02-27T03:03:45.458Z,15.44
2018-02-27T03:04:46.034Z,15.47
2018-02-27T03:05:46.612Z,15.54
2018-02-27T03:06:47.188Z,15.46
2018-02-27T03:07:47.766Z,15.43
2018-02-27T03:08:48.342Z,15.51
2018-02-27T03:09:48.923Z,15.49
2018-02-27T03:10:49.500Z,15.49
2018-02-27T03:11:50.078Z,15.46
2018-02-27T03:12:50.655Z,15.44
2018-02-27T03:13:51.285Z,15.47
2018-02-27T03:14:51.860Z,15.51
2018-02-27T03:15:52.440Z,15.43
2018-02-27T03:16:53.066Z,15.44
2018-02-27T03:17:53.642Z,15.49
2018-02-27T03:18:54.222Z,15.54
2018-02-27T03:19:54.853Z,15.54
2018-02-27T03:20:55.477Z,15.44
2018-02-27T03:21:56.060Z,15.51
2018-02-27T03:22:56.637Z,15.46
2018-02-27T03:23:57.212Z,15.44
2018-02-27T03:24:57.787Z,15.54
2018-02-27T03:25:58.365Z,15.47
2018-02-27T03:26:58.943Z,15.46
2018-02-27T03:27:59.522Z,15.57
2018-02-27T03:29:00.100Z,15.49
2018-02-27T03:30:00.720Z,15.47
2018-02-27T03:31:01.299Z,15.44
2018-02-27T03:32:01.875Z,15.44
2018-02-27T03:33:02.502Z,15.52
2018-02-27T03:34:03.084Z,15.49
2018-02-27T03:35:03.652Z,15.47
2018-02-27T03:36:04.227Z,15.43
2018-02-27T03:37:04.802Z,15.52
2018-02-27T03:38:05.529Z,15.49
2018-02-27T03:39:06.155Z,15.42
2018-02-27T03:40:06.728Z,15.47
2018-02-27T03:41:07.307Z,15.47
2018-02-27T03:42:07.878Z,15.43
2018-02-27T03:43:08.455Z,15.42
2018-02-27T03:44:09.033Z,15.44
2018-02-27T03:45:09.652Z,15.54
2018-02-27T03:46:10.232Z,15.55
2018-02-27T03:47:10.802Z,15.47
2018-02-27T03:48:11.378Z,15.42
2018-02-27T03:49:11.953Z,15.44
2018-02-27T03:50:12.530Z,15.42
2018-02-27T03:51:13.112Z,15.52
2018-02-27T03:52:13.838Z,15.46
2018-02-27T03:53:14.416Z,15.46
2018-02-27T03:54:15.040Z,15.44
2018-02-27T03:55:15.617Z,15.42
2018-02-27T03:56:16.193Z,15.40
2018-02-27T03:57:16.770Z,15.47
2018-02-27T03:58:17.349Z,15.36
2018-02-27T03:59:17.919Z,15.39
2018-02-27T04:00:18.546Z,15.52
2018-02-27T04:01:19.121Z,15.54
2018-02-27T04:02:19.697Z,15.42
2018-02-27T04:03:20.279Z,15.47
2018-02-27T04:04:20.855Z,15.55
2018-02-27T04:05:21.438Z,15.47
2018-02-27T04:06:22.016Z,15.44
2018-02-27T04:07:22.592Z,15.44
2018-02-27T04:08:23.324Z,15.37
2018-02-27T04:09:23.901Z,15.43
2018-02-27T04:10:24.481Z,15.46
2018-02-27T04:11:25.058Z,15.40
2018-02-27T04:12:25.687Z,15.46
2018-02-27T04:13:26.272Z,15.39
2018-02-27T04:14:26.843Z,15.43
2018-02-27T04:15:27.421Z,15.37
2018-02-27T04:16:28.000Z,15.39
2018-02-27T04:17:28.622Z,15.43
2018-02-27T04:18:29.250Z,15.36
2018-02-27T04:19:29.830Z,15.36
2018-02-27T04:20:30.416Z,15.47
2018-02-27T04:21:30.993Z,15.37
2018-02-27T04:22:31.622Z,15.46
2018-02-27T04:23:32.206Z,15.39
2018-02-27T04:24:32.785Z,15.46
2018-02-27T04:25:33.363Z,15.46
2018-02-27T04:26:33.945Z,15.46
2018-02-27T04:27:34.524Z,15.42
2018-02-27T04:28:35.153Z,15.49
2018-02-27T04:29:35.736Z,15.46
2018-02-27T04:30:36.316Z,15.40
2018-02-27T04:31:36.905Z,15.44
2018-02-27T04:32:37.525Z,15.39
2018-02-27T04:33:38.156Z,15.36
2018-02-27T04:34:38.737Z,15.33
2018-02-27T04:35:39.313Z,15.36
2018-02-27T04:36:39.890Z,15.31
2018-02-27T04:37:40.466Z,15.33
2018-02-27T04:38:41.096Z,15.35
2018-02-27T04:39:41.672Z,15.36
2018-02-27T04:40:42.252Z,15.33
2018-02-27T04:41:42.831Z,15.35
2018-02-27T04:42:43.412Z,15.27
2018-02-27T04:43:43.995Z,15.33
2018-02-27T04:44:44.573Z,15.27
2018-02-27T04:45:45.202Z,15.29
2018-02-27T04:46:45.783Z,15.31
2018-02-27T04:47:46.358Z,15.33
2018-02-27T04:48:46.938Z,15.27
2018-02-27T04:49:47.516Z,15.21
2018-02-27T04:50:48.094Z,15.27
2018-02-27T04:51:48.673Z,15.18
2018-02-27T04:52:49.252Z,15.19
2018-02-27T04:53:49.830Z,15.22
2018-02-27T04:54:50.408Z,15.15
2018-02-27T04:55:51.043Z,15.21
2018-02-27T04:56:51.624Z,15.18
2018-02-27T04:57:52.205Z,15.22
2018-02-27T04:58:52.782Z,15.07
2018-02-27T04:59:53.358Z,15.10
2018-02-27T05:00:53.984Z,15.15
2018-02-27T05:01:54.562Z,15.11
2018-02-27T05:02:55.142Z,15.18
2018-02-27T05:03:55.725Z,15.15
2018-02-27T05:04:56.317Z,15.17
2018-02-27T05:05:56.897Z,15.14
2018-02-27T05:06:57.472Z,15.09
2018-02-27T05:07:58.054Z,15.02
2018-02-27T05:08:58.644Z,15.15
2018-02-27T05:09:59.222Z,15.15
2018-02-27T05:10:59.816Z,15.19
2018-02-27T05:12:00.436Z,15.06
2018-02-27T05:13:01.018Z,15.06
2018-02-27T05:14:01.650Z,15.10
2018-02-27T05:15:02.232Z,15.14
2018-02-27T05:16:02.807Z,15.15
2018-02-27T05:17:03.384Z,15.17
2018-02-27T05:18:04.013Z,15.17
2018-02-27T05:19:04.595Z,15.11
2018-02-27T05:20:05.169Z,15.11
2018-02-27T05:21:05.748Z,15.14
2018-02-27T05:22:06.329Z,15.17
2018-02-27T05:23:06.917Z,15.14
2018-02-27T05:24:07.488Z,15.17
2018-02-27T05:25:08.066Z,15.02
2018-02-27T05:26:08.644Z,14.99
2018-02-27T05:27:09.224Z,14.99
2018-02-27T05:28:09.851Z,15.02
2018-02-27T05:29:10.430Z,15.02
2018-02-27T05:30:11.011Z,15.02
2018-02-27T05:31:11.589Z,14.97
2018-02-27T05:32:12.222Z,15.03
2018-02-27T05:33:12.805Z,15.03
2018-02-27T05:34:13.384Z,15.02
2018-02-27T05:35:13.965Z,15.02
2018-02-27T05:36:14.545Z,14.94
2018-02-27T05:37:15.176Z,15.02
2018-02-27T05:38:15.756Z,15.02
2018-02-27T05:39:16.339Z,14.89
2018-02-27T05:40:16.920Z,14.92
2018-02-27T05:41:17.502Z,14.88
2018-02-27T05:42:18.082Z,14.94
2018-02-27T05:43:18.660Z,14.89
2018-02-27T05:44:19.285Z,14.89
2018-02-27T05:45:19.864Z,14.91
2018-02-27T05:46:20.443Z,14.99
2018-02-27T05:47:21.024Z,14.89
2018-02-27T05:48:21.652Z,14.94
2018-02-27T05:49:22.231Z,14.89
2018-02-27T05:50:22.813Z,14.82
2018-02-27T05:51:23.395Z,14.81
2018-02-27T05:52:23.974Z,14.82
2018-02-27T05:53:24.554Z,14.85
2018-02-27T05:54:25.150Z,14.84
2018-02-27T05:55:25.721Z,14.77
2018-02-27T05:56:26.299Z,14.84
2018-02-27T05:57:26.935Z,14.77
2018-02-27T05:58:27.510Z,14.77
2018-02-27T05:59:28.138Z,14.72
2018-02-27T06:00:28.717Z,14.82
2018-02-27T06:01:29.299Z,14.73
2018-02-27T06:02:29.879Z,14.69
2018-02-27T06:03:30.463Z,14.65
2018-02-27T06:04:31.039Z,14.68
2018-02-27T06:05:31.617Z,14.66
2018-02-27T06:06:32.243Z,14.63
2018-02-27T06:07:32.822Z,14.63
2018-02-27T06:08:33.399Z,14.69
2018-02-27T06:09:34.025Z,14.66
2018-02-27T06:10:34.602Z,14.63
2018-02-27T06:11:35.180Z,14.59
2018-02-27T06:12:35.759Z,14.62
2018-02-27T06:13:36.337Z,14.55
2018-02-27T06:14:36.914Z,14.62
2018-02-27T06:15:37.493Z,14.55
2018-02-27T06:16:38.180Z,14.60
2018-02-27T06:17:38.762Z,14.58
2018-02-27T06:18:39.388Z,14.51
2018-02-27T06:19:39.969Z,14.48
2018-02-27T06:20:40.543Z,14.44
2018-02-27T06:21:41.124Z,14.54
2018-02-27T06:22:41.701Z,14.50
2018-02-27T06:23:42.279Z,14.33
2018-02-27T06:24:42.861Z,14.43
2018-02-27T06:25:43.440Z,14.37
2018-02-27T06:26:44.021Z,14.37
2018-02-27T06:27:44.604Z,14.44
2018-02-27T06:28:45.229Z,14.23
2018-02-27T06:29:45.813Z,14.33
2018-02-27T06:30:46.492Z,14.25
2018-02-27T06:31:47.171Z,14.37
2018-02-27T06:32:47.744Z,14.35
2018-02-27T06:33:48.323Z,14.26
2018-02-27T06:34:48.901Z,14.30
2018-02-27T06:35:49.529Z,14.28
2018-02-27T06:36:50.111Z,14.32
2018-02-27T06:37:50.791Z,14.32
2018-02-27T06:38:51.367Z,14.35
2018-02-27T06:39:51.948Z,14.26
2018-02-27T06:40:52.525Z,14.29
2018-02-27T06:41:53.102Z,14.33
2018-02-27T06:42:53.682Z,14.35
2018-02-27T06:43:54.259Z,14.25
2018-02-27T06:44:54.834Z,14.28
2018-02-27T06:45:55.413Z,14.26
2018-02-27T06:46:55.990Z,14.26
2018-02-27T06:47:56.620Z,14.33
2018-02-27T06:48:57.206Z,14.29
2018-02-27T06:49:57.832Z,14.43
2018-02-27T06:50:58.412Z,14.22
2018-02-27T06:51:58.995Z,14.33
2018-02-27T06:52:59.572Z,14.35
2018-02-27T06:54:00.203Z,14.28
2018-02-27T06:55:00.785Z,14.25
2018-02-27T06:56:01.366Z,14.28
2018-02-27T06:57:01.947Z,14.17
2018-02-27T06:58:02.525Z,14.23
2018-02-27T06:59:03.104Z,14.25
2018-02-27T07:00:03.683Z,14.26
2018-02-27T07:01:04.310Z,14.26
2018-02-27T07:02:04.891Z,14.23
2018-02-27T07:03:05.470Z,14.25
2018-02-27T07:04:06.057Z,14.23
2018-02-27T07:05:06.630Z,14.22
2018-02-27T07:06:07.208Z,14.26
2018-02-27T07:07:07.936Z,14.23
2018-02-27T07:08:08.516Z,14.23
2018-02-27T07:09:09.093Z,14.25
2018-02-27T07:10:09.672Z,14.23
2018-02-27T07:11:10.252Z,14.18
2018-02-27T07:12:10.877Z,14.18
2018-02-27T07:13:11.456Z,14.14
2018-02-27T07:14:12.040Z,14.11
2018-02-27T07:15:12.615Z,14.22
2018-02-27T07:16:13.195Z,14.26
2018-02-27T07:17:13.772Z,14.20
2018-02-27T07:18:14.355Z,14.22
2018-02-27T07:19:14.989Z,14.28
2018-02-27T07:20:15.619Z,14.12
2018-02-27T07:21:16.203Z,14.17
2018-02-27T07:22:16.830Z,14.15
2018-02-27T07:23:17.412Z,14.15
2018-02-27T07:24:17.996Z,14.11
2018-02-27T07:25:18.579Z,14.11
2018-02-27T07:26:19.400Z,14.14
2018-02-27T07:27:19.982Z,14.05
2018-02-27T07:28:20.560Z,14.04
2018-02-27T07:29:21.194Z,14.08
2018-02-27T07:30:21.767Z,13.99
2018-02-27T07:31:22.345Z,14.03
2018-02-27T07:32:22.925Z,14.04
2018-02-27T07:33:23.506Z,13.99
2018-02-27T07:34:24.084Z,13.96
2018-02-27T07:35:24.713Z,13.96
2018-02-27T07:36:25.295Z,13.99
2018-02-27T07:37:25.874Z,13.83
2018-02-27T07:38:26.455Z,14.00
2018-02-27T07:39:27.037Z,13.97
2018-02-27T07:40:27.610Z,13.93
2018-02-27T07:41:28.191Z,13.93
2018-02-27T07:42:28.769Z,14.00
2018-02-27T07:43:29.347Z,14.07
2018-02-27T07:44:29.923Z,14.05
2018-02-27T07:45:30.507Z,14.05
2018-02-27T07:46:31.088Z,14.07
2018-02-27T07:47:31.663Z,14.03
2018-02-27T07:48:32.398Z,14.04
2018-02-27T07:49:32.977Z,13.97
2018-02-27T07:50:33.605Z,13.93
2018-02-27T07:51:34.191Z,13.99
2018-02-27T07:52:34.884Z,14.07
2018-02-27T07:53:35.446Z,14.03
2018-02-27T07:54:36.027Z,14.07
2018-02-27T07:55:36.610Z,14.08
2018-02-27T07:56:37.192Z,14.11
2018-02-27T07:57:37.772Z,14.15
2018-02-27T07:58:38.353Z,14.12
2018-02-27T07:59:38.941Z,14.11
2018-02-27T08:00:39.519Z,14.10
2018-02-27T08:01:40.103Z,14.15
2018-02-27T08:02:40.686Z,14.05
2018-02-27T08:03:41.264Z,14.11
2018-02-27T08:04:41.897Z,14.10
2018-02-27T08:05:42.479Z,14.11
2018-02-27T08:06:43.061Z,14.00
2018-02-27T08:07:43.693Z,14.07
2018-02-27T08:08:44.275Z,14.04
2018-02-27T08:09:44.905Z,14.10
2018-02-27T08:10:45.488Z,14.12
2018-02-27T08:11:46.064Z,14.07
2018-02-27T08:12:46.643Z,14.04
2018-02-27T08:13:47.243Z,14.04
2018-02-27T08:14:47.809Z,14.15
2018-02-27T08:15:48.388Z,14.11
2018-02-27T08:16:48.970Z,14.05
2018-02-27T08:17:49.546Z,13.95
2018-02-27T08:18:50.125Z,14.00
2018-02-27T08:19:50.703Z,13.99
2018-02-27T08:20:51.285Z,13.97
2018-02-27T08:21:51.951Z,13.93
2018-02-27T08:22:52.545Z,13.93
2018-02-27T08:23:53.125Z,13.93
2018-02-27T08:24:53.707Z,13.95
2018-02-27T08:25:54.338Z,13.97
2018-02-27T08:26:54.926Z,14.05
2018-02-27T08:27:55.503Z,14.04
2018-02-27T08:28:56.082Z,13.99
2018-02-27T08:29:56.669Z,14.03
2018-02-27T08:30:57.253Z,13.96
2018-02-27T08:31:57.834Z,14.00
2018-02-27T08:32:58.418Z,13.99
2018-02-27T08:33:59.001Z,13.96
2018-02-27T08:34:59.632Z,13.97
2018-02-27T08:36:00.213Z,14.00
2018-02-27T08:37:00.796Z,13.97
2018-02-27T08:38:01.432Z,13.97
2018-02-27T08:39:02.057Z,13.99
2018-02-27T08:40:02.688Z,13.86
2018-02-27T08:41:03.268Z,13.86
2018-02-27T08:42:03.854Z,13.85
2018-02-27T08:43:04.489Z,13.87
2018-02-27T08:44:05.066Z,13.93
2018-02-27T08:45:05.652Z,13.89
2018-02-27T08:46:06.281Z,13.93
2018-02-27T08:47:06.866Z,13.90
2018-02-27T08:48:07.444Z,13.95
2018-02-27T08:49:08.030Z,13.92
2018-02-27T08:50:08.606Z,13.93
2018-02-27T08:51:09.236Z,13.90
2018-02-27T08:52:09.815Z,13.95
2018-02-27T08:53:10.396Z,13.93
2018-02-27T08:54:11.027Z,13.97
2018-02-27T08:55:11.609Z,13.95
2018-02-27T08:56:12.235Z,14.03
2018-02-27T08:57:12.771Z,13.92
2018-02-27T08:58:13.353Z,13.95
2018-02-27T08:59:13.937Z,13.93
2018-02-27T09:00:14.519Z,13.93
2018-02-27T09:01:15.101Z,13.86
2018-02-27T09:02:15.684Z,13.95
2018-02-27T09:03:16.268Z,13.99
2018-02-27T09:04:16.853Z,13.99
2018-02-27T09:05:17.488Z,13.93
2018-02-27T09:06:18.067Z,14.04
2018-02-27T09:07:18.649Z,14.04
2018-02-27T09:08:19.273Z,14.03
2018-02-27T09:09:19.859Z,14.00
2018-02-27T09:10:20.442Z,14.00
2018-02-27T09:11:21.031Z,14.00
2018-02-27T09:12:21.651Z,14.00
2018-02-27T09:13:22.285Z,14.04
2018-02-27T09:14:22.914Z,13.95
2018-02-27T09:15:23.503Z,13.99
2018-02-27T09:16:24.123Z,13.90
2018-02-27T09:17:24.706Z,14.00
2018-02-27T09:18:25.285Z,13.93
2018-02-27T09:19:25.867Z,13.96
2018-02-27T09:20:26.454Z,13.93
2018-02-27T09:21:27.077Z,14.04
2018-02-27T09:22:27.748Z,14.07
2018-02-27T09:23:28.334Z,14.04
2018-02-27T09:24:28.917Z,13.99
2018-02-27T09:25:29.501Z,13.96
2018-02-27T09:26:30.078Z,13.96
2018-02-27T09:27:30.701Z,13.95
2018-02-27T09:28:31.281Z,13.97
2018-02-27T09:29:31.915Z,13.92
2018-02-27T09:30:32.498Z,13.99
2018-02-27T09:31:33.083Z,13.99
2018-02-27T09:32:33.669Z,13.90
2018-02-27T09:33:34.301Z,13.86
2018-02-27T09:34:34.882Z,13.95
2018-02-27T09:35:35.464Z,13.90
2018-02-27T09:36:36.048Z,13.93
2018-02-27T09:37:36.666Z,13.90
2018-02-27T09:38:37.262Z,13.90
2018-02-27T09:39:37.794Z,13.90
2018-02-27T09:40:38.381Z,13.78
2018-02-27T09:41:39.011Z,13.81
2018-02-27T09:42:39.589Z,13.79
2018-02-27T09:43:40.173Z,13.77
2018-02-27T09:44:40.751Z,13.70
2018-02-27T09:45:41.484Z,13.78
2018-02-27T09:46:42.065Z,13.83
2018-02-27T09:47:42.647Z,13.78
2018-02-27T09:48:43.230Z,13.72
2018-02-27T09:49:43.814Z,13.63
2018-02-27T09:50:44.444Z,13.63
2018-02-27T09:51:45.028Z,13.54
2018-02-27T09:52:45.609Z,13.62
2018-02-27T09:53:46.193Z,13.67
2018-02-27T09:54:46.775Z,13.70
2018-02-27T09:55:47.358Z,13.70
2018-02-27T09:56:47.943Z,13.74
2018-02-27T09:57:48.523Z,13.78
2018-02-27T09:58:49.107Z,13.78
2018-02-27T09:59:49.742Z,13.78
2018-02-27T10:00:50.373Z,13.83
2018-02-27T10:01:50.960Z,13.93
2018-02-27T10:02:51.587Z,13.87
2018-02-27T10:03:52.211Z,13.83
2018-02-27T10:04:52.795Z,13.86
2018-02-27T10:05:53.428Z,13.83
2018-02-27T10:06:54.012Z,13.74
2018-02-27T10:07:54.592Z,13.75
2018-02-27T10:08:55.177Z,13.77
2018-02-27T10:09:55.760Z,13.77
2018-02-27T10:10:56.340Z,13.71
2018-02-27T10:11:56.923Z,13.68
2018-02-27T10:12:57.502Z,13.74
2018-02-27T10:13:58.086Z,13.74
2018-02-27T10:14:58.675Z,13.85
2018-02-27T10:15:59.307Z,13.81
2018-02-27T10:17:00.039Z,13.87
2018-02-27T10:18:00.624Z,13.89
2018-02-27T10:19:01.209Z,13.89
2018-02-27T10:20:01.842Z,13.93
2018-02-27T10:21:02.428Z,13.96
2018-02-27T10:22:03.012Z,13.92
2018-02-27T10:23:03.650Z,13.92
2018-02-27T10:24:04.276Z,13.89
2018-02-27T10:25:04.906Z,13.97
2018-02-27T10:26:05.539Z,13.93
2018-02-27T10:27:06.123Z,13.89
2018-02-27T10:28:06.706Z,13.77
2018-02-27T10:29:07.290Z,13.93
2018-02-27T10:30:07.874Z,13.81
2018-02-27T10:31:08.455Z,13.87
2018-02-27T10:32:09.038Z,13.93
2018-02-27T10:33:09.618Z,13.93
2018-02-27T10:34:10.201Z,14.00
2018-02-27T10:35:10.784Z,14.03
2018-02-27T10:36:11.365Z,13.97
2018-02-27T10:37:11.998Z,14.00
2018-02-27T10:38:12.581Z,14.04
2018-02-27T10:39:13.213Z,14.05
2018-02-27T10:40:13.795Z,13.96
2018-02-27T10:41:14.380Z,14.00
2018-02-27T10:42:15.011Z,13.97
2018-02-27T10:43:15.600Z,13.85
2018-02-27T10:44:16.237Z,13.90
2018-02-27T10:45:16.817Z,13.93
2018-02-27T10:46:17.399Z,13.83
2018-02-27T10:47:17.981Z,13.81
2018-02-27T10:48:18.564Z,13.83
2018-02-27T10:49:19.144Z,13.85
2018-02-27T10:50:19.727Z,13.86
2018-02-27T10:51:20.313Z,13.81
2018-02-27T10:52:20.894Z,13.90
2018-02-27T10:53:21.480Z,13.70
2018-02-27T10:54:22.066Z,13.65
2018-02-27T10:55:22.701Z,13.65
2018-02-27T10:56:23.337Z,13.56
2018-02-27T10:57:23.920Z,13.59
2018-02-27T10:58:24.504Z,13.47
2018-02-27T10:59:25.081Z,13.60
2018-02-27T11:00:25.716Z,13.60
2018-02-27T11:01:26.299Z,13.60
2018-02-27T11:02:26.929Z,13.70
2018-02-27T11:03:27.515Z,13.77
2018-02-27T11:04:28.100Z,13.79
2018-02-27T11:05:28.686Z,13.83
2018-02-27T11:06:29.267Z,13.79
2018-02-27T11:07:29.852Z,13.78
2018-02-27T11:08:30.439Z,13.85
2018-02-27T11:09:31.021Z,13.81
2018-02-27T11:10:31.605Z,13.79
2018-02-27T11:11:32.182Z,13.74
2018-02-27T11:12:32.766Z,13.79
2018-02-27T11:13:33.347Z,13.83
2018-02-27T11:14:33.926Z,13.83
2018-02-27T11:15:34.559Z,13.74
2018-02-27T11:16:35.195Z,13.75
2018-02-27T11:17:35.828Z,13.74
2018-02-27T11:18:36.452Z,13.72
2018-02-27T11:19:37.033Z,13.59
2018-02-27T11:20:37.614Z,13.62
2018-02-27T11:21:38.196Z,13.62
2018-02-27T11:22:38.782Z,13.46
2018-02-27T11:23:39.405Z,13.46
2018-02-27T11:24:39.989Z,13.47
2018-02-27T11:25:40.571Z,13.52
2018-02-27T11:26:41.151Z,13.39
2018-02-27T11:27:41.736Z,13.52
2018-02-27T11:28:42.371Z,13.50
2018-02-27T11:29:42.957Z,13.50
2018-02-27T11:30:43.540Z,13.47
2018-02-27T11:31:44.121Z,13.59
2018-02-27T11:32:44.706Z,13.50
2018-02-27T11:33:45.293Z,13.59
2018-02-27T11:34:45.927Z,13.49
2018-02-27T11:35:46.561Z,13.49
2018-02-27T11:36:47.144Z,13.52
2018-02-27T11:37:47.777Z,13.47
2018-02-27T11:38:48.361Z,13.60
2018-02-27T11:39:48.941Z,13.60
2018-02-27T11:40:49.522Z,13.59
2018-02-27T11:41:50.108Z,13.56
2018-02-27T11:42:50.697Z,13.54
2018-02-27T11:43:51.273Z,13.65
2018-02-27T11:44:51.856Z,13.63
2018-02-27T11:45:52.488Z,13.68
2018-02-27T11:46:53.072Z,13.71
2018-02-27T11:47:53.650Z,13.65
2018-02-27T11:48:54.233Z,13.72
2018-02-27T11:49:54.815Z,13.70
2018-02-27T11:50:55.449Z,13.65
2018-02-27T11:51:56.032Z,13.77
2018-02-27T11:52:56.617Z,13.68
2018-02-27T11:53:57.246Z,13.70
2018-02-27T11:54:57.976Z,13.70
2018-02-27T11:55:58.560Z,13.71
2018-02-27T11:56:59.146Z,13.65
2018-02-27T11:57:59.728Z,13.79
2018-02-27T11:59:00.311Z,13.70
2018-02-27T12:00:00.892Z,13.71
2018-02-27T12:01:01.478Z,13.75
2018-02-27T12:02:02.058Z,13.79
2018-02-27T12:03:02.639Z,13.85
2018-02-27T12:04:03.225Z,13.81
2018-02-27T12:05:03.807Z,13.87
2018-02-27T12:06:04.391Z,13.90
2018-02-27T12:07:04.975Z,13.78
2018-02-27T12:08:05.561Z,13.81
2018-02-27T12:09:06.241Z,13.81
2018-02-27T12:10:06.826Z,13.68
2018-02-27T12:11:07.410Z,13.83
2018-02-27T12:12:08.139Z,13.81
2018-02-27T12:13:08.770Z,13.89
2018-02-27T12:14:09.351Z,13.78
2018-02-27T12:15:09.935Z,13.78
2018-02-27T12:16:10.519Z,13.78
2018-02-27T12:17:11.103Z,13.85
2018-02-27T12:18:11.682Z,13.78
2018-02-27T12:19:12.270Z,13.75
2018-02-27T12:20:12.849Z,13.77
2018-02-27T12:21:13.430Z,13.77
2018-02-27T12:22:14.013Z,13.83
2018-02-27T12:23:14.597Z,13.81
2018-02-27T12:24:15.181Z,13.92
2018-02-27T12:25:15.758Z,13.97
2018-02-27T12:26:16.344Z,13.87
2018-02-27T12:27:16.923Z,13.89
2018-02-27T12:28:17.508Z,13.92
2018-02-27T12:29:18.179Z,13.95
2018-02-27T12:30:23.830Z,13.95
2018-02-27T12:31:24.615Z,13.99
2018-02-27T12:32:25.196Z,14.10
2018-02-27T12:33:25.881Z,14.07
2018-02-27T12:34:26.662Z,14.04
2018-02-27T12:35:27.245Z,14.05
2018-02-27T12:36:27.872Z,14.04
2018-02-27T12:37:28.501Z,14.11
2018-02-27T12:38:29.083Z,14.10
2018-02-27T12:39:29.669Z,14.14
2018-02-27T12:40:30.253Z,14.12
2018-02-27T12:41:30.838Z,14.15
2018-02-27T12:42:31.423Z,14.11
2018-02-27T12:43:32.007Z,14.08
2018-02-27T12:44:32.590Z,14.04
2018-02-27T12:45:33.226Z,13.97
2018-02-27T12:46:33.808Z,13.95
2018-02-27T12:47:34.397Z,13.90
2018-02-27T12:48:35.025Z,13.95
2018-02-27T12:49:35.607Z,14.03
2018-02-27T12:50:36.246Z,13.96
2018-02-27T12:51:36.864Z,13.97
2018-02-27T12:52:37.494Z,14.00
2018-02-27T12:53:38.079Z,14.05
2018-02-27T12:54:38.661Z,13.93
2018-02-27T12:55:39.245Z,14.04
2018-02-27T12:56:39.827Z,13.97
2018-02-27T12:57:40.411Z,13.97
2018-02-27T12:58:40.992Z,13.99
2018-02-27T12:59:41.575Z,13.95
2018-02-27T13:00:42.157Z,13.95